Iver Prosperity — V7LP8 — position and weather

sailwx.info

Track history (hours):
 
Tides and Currents Weather Stations Pressure Air Temp Water Temp Dewpoint Dewpoint Depression Visibility Wind Speed Wind Dir Waves Ship Positions

Iver Prosperity

Last reported at 2018-Jun-21 21:57 UTC. Time now 2018-Jun-21 22:08 UTC.
Position N 41°48' W 071°24'.

Length 184 m; draft 10.5 m.

Type: Ship (hazmat cat A). MMSI: 538002784.

Date/timePositionNaut miles runAvg speedWind from/ knotsBaromVisibWave heightAir tempDewpointWater temp
2018-Jun-21 21:57N 41°48' W 071°24'0 0.0
2018-Jun-21 21:21N 41°48' W 071°24'0 0.0
2018-Jun-21 18:33N 41°48' W 071°24'0 0.0
2018-Jun-21 18:21N 41°48' W 071°24'0 0.0
2018-Jun-21 17:15N 41°48' W 071°24'0 0.0
2018-Jun-21 16:57N 41°48' W 071°24'0 0.0
2018-Jun-21 16:27N 41°48' W 071°24'0 0.0
2018-Jun-21 15:51N 41°48' W 071°24'0 0.0
2018-Jun-21 15:22N 41°48' W 071°24'0 0.0
2018-Jun-21 14:21N 41°48' W 071°24'0 0.0
2018-Jun-21 13:57N 41°48' W 071°24'0 0.0
2018-Jun-21 13:15N 41°48' W 071°24'0 0.0
2018-Jun-21 12:57N 41°48' W 071°24'0 0.0
2018-Jun-21 10:33N 41°48' W 071°24'0 0.0
2018-Jun-21 10:15N 41°48' W 071°24'0 0.6
2018-Jun-21 10:00N 41°48' W 071°24'2 3.2
2018-Jun-21 09:29N 41°47' W 071°22'4 7.4
2018-Jun-21 08:59N 41°43' W 071°21'5 9.9
2018-Jun-21 08:29N 41°39' W 071°18'610.4
2018-Jun-21 07:52N 41°32' W 071°20'610.4
2018-Jun-21 07:19N 41°27' W 071°23'  
2018-Jun-19 02:32N 40°60' W 071°03'013.5
2018-Jun-19 02:30N 40°60' W 071°03'11410.3
2018-Jun-18 15:29N 41°17' W 068°33'32 9.5
2018-Jun-18 12:08N 41°48' W 068°25'3 9.7
2018-Jun-18 11:50N 41°51' W 068°23'3 9.5
2018-Jun-18 11:29N 41°54' W 068°22'5 9.7
2018-Jun-18 11:01N 41°58' W 068°19'5 9.7
2018-Jun-18 10:30N 42°02' W 068°17'5 9.8
2018-Jun-18 10:00N 42°07' W 068°14'5 9.8
2018-Jun-18 09:30N 42°11' W 068°11'5 9.8
2018-Jun-18 09:00N 42°16' W 068°08'5 9.9
2018-Jun-18 08:31N 42°20' W 068°06'5 9.9
2018-Jun-18 08:01N 42°25' W 068°03'2812.3
2018-Jun-18 05:42N 42°51' W 067°47'313.3
2018-Jun-18 05:30N 42°53' W 067°46'  
2018-Jun-14 13:52N 42°50' W 069°55'412.0
2018-Jun-14 13:30N 42°48' W 069°60'611.8
2018-Jun-14 13:00N 42°46' W 070°07'612.0
2018-Jun-14 12:30N 42°43' W 070°14'612.0
2018-Jun-14 12:01N 42°39' W 070°21'611.9
2018-Jun-14 11:30N 42°36' W 070°28'611.9
2018-Jun-14 11:00N 42°32' W 070°34'612.0
2018-Jun-14 10:30N 42°29' W 070°41'612.2
2018-Jun-14 10:00N 42°25' W 070°47'611.8
2018-Jun-14 09:30N 42°22' W 070°54'510.5
2018-Jun-14 09:00N 42°21' W 071°01'3 5.7
2018-Jun-14 08:30N 42°23' W 071°03'1 1.6
2018-Jun-14 08:00N 42°23' W 071°02'0 0.0
2018-Jun-14 07:30N 42°23' W 071°02'0 0.0
2018-Jun-14 07:00N 42°23' W 071°02'0 0.0
2018-Jun-14 06:29N 42°23' W 071°02'0 0.0
2018-Jun-14 06:00N 42°23' W 071°02'0 0.0
2018-Jun-14 05:30N 42°23' W 071°02'0 0.0
2018-Jun-14 04:59N 42°23' W 071°02'0 0.0
2018-Jun-14 04:30N 42°23' W 071°02'0 0.0
2018-Jun-14 04:00N 42°23' W 071°02'0 0.0
2018-Jun-14 03:30N 42°23' W 071°02'0 0.0
2018-Jun-14 03:00N 42°23' W 071°02'0 0.0
2018-Jun-14 02:30N 42°23' W 071°02'0 0.0
2018-Jun-14 02:00N 42°23' W 071°02'0 0.0
2018-Jun-14 01:30N 42°23' W 071°02'0 0.0
2018-Jun-14 01:00N 42°23' W 071°02'0 0.0
2018-Jun-14 00:30N 42°23' W 071°02'0 0.0
2018-Jun-13 23:59N 42°23' W 071°02'0 0.0
2018-Jun-13 23:30N 42°23' W 071°02'0 0.0
2018-Jun-13 23:00N 42°23' W 071°02'0 0.0
2018-Jun-13 22:30N 42°23' W 071°02'0 0.0
2018-Jun-13 21:59N 42°23' W 071°02'0 0.0
2018-Jun-13 21:30N 42°23' W 071°02'0 0.0
2018-Jun-13 21:00N 42°23' W 071°02'0 0.0
2018-Jun-13 20:29N 42°23' W 071°02'0 0.0
2018-Jun-13 20:00N 42°23' W 071°02'0 0.0
2018-Jun-13 19:29N 42°23' W 071°02'0 0.0
2018-Jun-13 18:57N 42°23' W 071°02'0 0.0
2018-Jun-13 18:29N 42°23' W 071°02'0 0.0
2018-Jun-13 18:00N 42°23' W 071°02'0 0.0
2018-Jun-13 17:30N 42°23' W 071°02'0 0.0
2018-Jun-13 16:57N 42°23' W 071°02'0 0.0
2018-Jun-13 16:30N 42°23' W 071°02'0 0.0
2018-Jun-13 16:00N 42°23' W 071°02'0 0.0
2018-Jun-13 15:30N 42°23' W 071°02'0 0.0
2018-Jun-13 15:00N 42°23' W 071°02'0 0.0
2018-Jun-13 14:30N 42°23' W 071°02'0 0.0
2018-Jun-13 14:00N 42°23' W 071°02'0 0.6
2018-Jun-13 13:30N 42°23' W 071°02'2 3.2
2018-Jun-13 13:01N 42°22' W 071°02'5 9.3
2018-Jun-13 12:30N 42°21' W 070°56'510.9
2018-Jun-13 12:01N 42°24' W 070°51'3 5.3
2018-Jun-13 11:31N 42°26' W 070°48'0 0.4
2018-Jun-13 10:59N 42°26' W 070°48'0 0.0
2018-Jun-13 10:29N 42°26' W 070°48'0 0.0
2018-Jun-13 09:59N 42°26' W 070°48'0 0.0
2018-Jun-13 09:30N 42°26' W 070°48'0 0.0
2018-Jun-13 08:59N 42°26' W 070°48'0 0.0
2018-Jun-13 08:29N 42°26' W 070°48'0 0.0
2018-Jun-13 07:59N 42°26' W 070°48'0 0.0
2018-Jun-13 07:29N 42°26' W 070°48'0 0.0
2018-Jun-13 06:59N 42°26' W 070°48'0 0.0
2018-Jun-13 06:29N 42°26' W 070°48'0 0.0
2018-Jun-13 05:59N 42°26' W 070°48'0 0.0
2018-Jun-13 05:29N 42°26' W 070°48'0 0.0
2018-Jun-13 04:59N 42°26' W 070°48'0 0.0
2018-Jun-13 04:29N 42°26' W 070°48'0 0.0
2018-Jun-13 03:59N 42°26' W 070°48'0 0.0
2018-Jun-13 03:29N 42°26' W 070°48'0 0.0
2018-Jun-13 02:59N 42°26' W 070°48'0 0.0
2018-Jun-13 02:29N 42°26' W 070°48'0 0.0
2018-Jun-13 01:59N 42°26' W 070°48'0 0.0
2018-Jun-13 01:29N 42°26' W 070°48'0 0.0
2018-Jun-13 00:59N 42°26' W 070°48'0 0.0
2018-Jun-13 00:29N 42°26' W 070°48'0 0.0
2018-Jun-12 23:59N 42°26' W 070°48'0 0.0
2018-Jun-12 23:29N 42°26' W 070°48'0 0.0
2018-Jun-12 22:59N 42°26' W 070°48'0 0.0
2018-Jun-12 22:29N 42°26' W 070°48'0 0.0
2018-Jun-12 21:59N 42°26' W 070°48'0 0.2
2018-Jun-12 21:31N 42°26' W 070°48'4 7.8
2018-Jun-12 21:00N 42°28' W 070°44'5 9.8
2018-Jun-12 20:31N 42°31' W 070°38'510.0
2018-Jun-12 20:01N 42°33' W 070°32'510.4
2018-Jun-12 19:31N 42°36' W 070°26'510.3
2018-Jun-12 19:01N 42°39' W 070°20'510.3
2018-Jun-12 18:30N 42°42' W 070°14'510.1
2018-Jun-12 18:01N 42°45' W 070°09'510.8
2018-Jun-12 17:31N 42°50' W 070°06'510.7
2018-Jun-12 17:00N 42°55' W 070°04'510.6
2018-Jun-12 16:30N 42°60' W 070°01'1910.6
2018-Jun-12 14:45N 43°18' W 070°01'311.3
2018-Jun-12 14:30N 43°21' W 070°03'611.2
2018-Jun-12 14:00N 43°26' W 070°05'510.9
2018-Jun-12 13:30N 43°32' W 070°07'510.2
2018-Jun-12 13:01N 43°36' W 070°11'4 8.8
2018-Jun-12 12:30N 43°39' W 070°15'1 2.4
2018-Jun-12 11:58N 43°38' W 070°16'0 0.0
2018-Jun-12 11:28N 43°38' W 070°16'0 0.0
2018-Jun-12 10:58N 43°38' W 070°16'0 0.0
2018-Jun-12 10:28N 43°38' W 070°16'0 0.0
2018-Jun-12 09:58N 43°38' W 070°16'0 0.0
2018-Jun-12 09:28N 43°38' W 070°16'0 0.0
2018-Jun-12 08:58N 43°38' W 070°16'0 0.0
2018-Jun-12 08:28N 43°38' W 070°16'0 0.0
2018-Jun-12 07:58N 43°38' W 070°16'0 0.0
2018-Jun-12 07:28N 43°38' W 070°16'0 0.0
2018-Jun-12 06:58N 43°38' W 070°16'0 0.0
2018-Jun-12 06:28N 43°38' W 070°16'0 0.0
2018-Jun-12 05:58N 43°38' W 070°16'0 0.0
2018-Jun-12 05:28N 43°38' W 070°16'0 0.0
2018-Jun-12 04:58N 43°38' W 070°16'0 0.0
2018-Jun-12 04:28N 43°38' W 070°16'0 0.0
2018-Jun-12 03:58N 43°38' W 070°16'0 0.0
2018-Jun-12 03:28N 43°38' W 070°16'0 0.0
2018-Jun-12 02:58N 43°38' W 070°16'0 0.0
2018-Jun-12 02:25N 43°38' W 070°16'0 0.0
2018-Jun-12 01:58N 43°38' W 070°16'0 0.0
2018-Jun-12 01:28N 43°38' W 070°16'0 0.0
2018-Jun-12 00:58N 43°38' W 070°16'0 0.0
2018-Jun-12 00:28N 43°38' W 070°16'0 0.0
2018-Jun-11 23:58N 43°38' W 070°16'0 0.0
2018-Jun-11 23:28N 43°38' W 070°16'0 0.0
2018-Jun-11 22:58N 43°38' W 070°16'0 0.0
2018-Jun-11 22:28N 43°38' W 070°16'0 0.0
2018-Jun-11 21:58N 43°38' W 070°16'  
Track history (hours):
 
Tides and Currents Weather Stations Pressure Air Temp Water Temp Dewpoint Dewpoint Depression Visibility Wind Speed Wind Dir Waves Ship Positions

Iver Prosperity

Last reported at 2018-Jun-21 21:57 UTC. Time now 2018-Jun-21 22:08 UTC.
Position N 41°48' W 071°24'.

Length 184 m; draft 10.5 m.

Type: Ship (hazmat cat A). MMSI: 538002784.

Date/timePositionNaut miles runAvg speedWind from/ knotsBaromVisibWave heightAir tempDewpointWater temp
2018-Jun-21 21:57N 41°48' W 071°24'0 0.0
2018-Jun-21 21:21N 41°48' W 071°24'0 0.0
2018-Jun-21 18:33N 41°48' W 071°24'0 0.0
2018-Jun-21 18:21N 41°48' W 071°24'0 0.0
2018-Jun-21 17:15N 41°48' W 071°24'0 0.0
2018-Jun-21 16:57N 41°48' W 071°24'0 0.0
2018-Jun-21 16:27N 41°48' W 071°24'0 0.0
2018-Jun-21 15:51N 41°48' W 071°24'0 0.0
2018-Jun-21 15:22N 41°48' W 071°24'0 0.0
2018-Jun-21 14:21N 41°48' W 071°24'0 0.0
2018-Jun-21 13:57N 41°48' W 071°24'0 0.0
2018-Jun-21 13:15N 41°48' W 071°24'0 0.0
2018-Jun-21 12:57N 41°48' W 071°24'0 0.0
2018-Jun-21 10:33N 41°48' W 071°24'0 0.0
2018-Jun-21 10:15N 41°48' W 071°24'0 0.6
2018-Jun-21 10:00N 41°48' W 071°24'2 3.2
2018-Jun-21 09:29N 41°47' W 071°22'4 7.4
2018-Jun-21 08:59N 41°43' W 071°21'5 9.9
2018-Jun-21 08:29N 41°39' W 071°18'610.4
2018-Jun-21 07:52N 41°32' W 071°20'610.4
2018-Jun-21 07:19N 41°27' W 071°23'  
2018-Jun-19 02:32N 40°60' W 071°03'013.5
2018-Jun-19 02:30N 40°60' W 071°03'11410.3
2018-Jun-18 15:29N 41°17' W 068°33'32 9.5
2018-Jun-18 12:08N 41°48' W 068°25'3 9.7
2018-Jun-18 11:50N 41°51' W 068°23'3 9.5
2018-Jun-18 11:29N 41°54' W 068°22'5 9.7
2018-Jun-18 11:01N 41°58' W 068°19'5 9.7
2018-Jun-18 10:30N 42°02' W 068°17'5 9.8
2018-Jun-18 10:00N 42°07' W 068°14'5 9.8
2018-Jun-18 09:30N 42°11' W 068°11'5 9.8
2018-Jun-18 09:00N 42°16' W 068°08'5 9.9
2018-Jun-18 08:31N 42°20' W 068°06'5 9.9
2018-Jun-18 08:01N 42°25' W 068°03'2812.3
2018-Jun-18 05:42N 42°51' W 067°47'313.3
2018-Jun-18 05:30N 42°53' W 067°46'  
2018-Jun-14 13:52N 42°50' W 069°55'412.0
2018-Jun-14 13:30N 42°48' W 069°60'611.8
2018-Jun-14 13:00N 42°46' W 070°07'612.0
2018-Jun-14 12:30N 42°43' W 070°14'612.0
2018-Jun-14 12:01N 42°39' W 070°21'611.9
2018-Jun-14 11:30N 42°36' W 070°28'611.9
2018-Jun-14 11:00N 42°32' W 070°34'612.0
2018-Jun-14 10:30N 42°29' W 070°41'612.2
2018-Jun-14 10:00N 42°25' W 070°47'611.8
2018-Jun-14 09:30N 42°22' W 070°54'510.5
2018-Jun-14 09:00N 42°21' W 071°01'3 5.7
2018-Jun-14 08:30N 42°23' W 071°03'1 1.6
2018-Jun-14 08:00N 42°23' W 071°02'0 0.0
2018-Jun-14 07:30N 42°23' W 071°02'0 0.0
2018-Jun-14 07:00N 42°23' W 071°02'0 0.0
2018-Jun-14 06:29N 42°23' W 071°02'0 0.0
2018-Jun-14 06:00N 42°23' W 071°02'0 0.0
2018-Jun-14 05:30N 42°23' W 071°02'0 0.0
2018-Jun-14 04:59N 42°23' W 071°02'0 0.0
2018-Jun-14 04:30N 42°23' W 071°02'0 0.0
2018-Jun-14 04:00N 42°23' W 071°02'0 0.0
2018-Jun-14 03:30N 42°23' W 071°02'0 0.0
2018-Jun-14 03:00N 42°23' W 071°02'0 0.0
2018-Jun-14 02:30N 42°23' W 071°02'0 0.0
2018-Jun-14 02:00N 42°23' W 071°02'0 0.0
2018-Jun-14 01:30N 42°23' W 071°02'0 0.0
2018-Jun-14 01:00N 42°23' W 071°02'0 0.0
2018-Jun-14 00:30N 42°23' W 071°02'0 0.0
2018-Jun-13 23:59N 42°23' W 071°02'0 0.0
2018-Jun-13 23:30N 42°23' W 071°02'0 0.0
2018-Jun-13 23:00N 42°23' W 071°02'0 0.0
2018-Jun-13 22:30N 42°23' W 071°02'0 0.0
2018-Jun-13 21:59N 42°23' W 071°02'0 0.0
2018-Jun-13 21:30N 42°23' W 071°02'0 0.0
2018-Jun-13 21:00N 42°23' W 071°02'0 0.0
2018-Jun-13 20:29N 42°23' W 071°02'0 0.0
2018-Jun-13 20:00N 42°23' W 071°02'0 0.0
2018-Jun-13 19:29N 42°23' W 071°02'0 0.0
2018-Jun-13 18:57N 42°23' W 071°02'0 0.0
2018-Jun-13 18:29N 42°23' W 071°02'0 0.0
2018-Jun-13 18:00N 42°23' W 071°02'0 0.0
2018-Jun-13 17:30N 42°23' W 071°02'0 0.0
2018-Jun-13 16:57N 42°23' W 071°02'0 0.0
2018-Jun-13 16:30N 42°23' W 071°02'0 0.0
2018-Jun-13 16:00N 42°23' W 071°02'0 0.0
2018-Jun-13 15:30N 42°23' W 071°02'0 0.0
2018-Jun-13 15:00N 42°23' W 071°02'0 0.0
2018-Jun-13 14:30N 42°23' W 071°02'0 0.0
2018-Jun-13 14:00N 42°23' W 071°02'0 0.6
2018-Jun-13 13:30N 42°23' W 071°02'2 3.2
2018-Jun-13 13:01N 42°22' W 071°02'5 9.3
2018-Jun-13 12:30N 42°21' W 070°56'510.9
2018-Jun-13 12:01N 42°24' W 070°51'3 5.3
2018-Jun-13 11:31N 42°26' W 070°48'0 0.4
2018-Jun-13 10:59N 42°26' W 070°48'0 0.0
2018-Jun-13 10:29N 42°26' W 070°48'0 0.0
2018-Jun-13 09:59N 42°26' W 070°48'0 0.0
2018-Jun-13 09:30N 42°26' W 070°48'0 0.0
2018-Jun-13 08:59N 42°26' W 070°48'0 0.0
2018-Jun-13 08:29N 42°26' W 070°48'0 0.0
2018-Jun-13 07:59N 42°26' W 070°48'0 0.0
2018-Jun-13 07:29N 42°26' W 070°48'0 0.0
2018-Jun-13 06:59N 42°26' W 070°48'0 0.0
2018-Jun-13 06:29N 42°26' W 070°48'0 0.0
2018-Jun-13 05:59N 42°26' W 070°48'0 0.0
2018-Jun-13 05:29N 42°26' W 070°48'0 0.0
2018-Jun-13 04:59N 42°26' W 070°48'0 0.0
2018-Jun-13 04:29N 42°26' W 070°48'0 0.0
2018-Jun-13 03:59N 42°26' W 070°48'0 0.0
2018-Jun-13 03:29N 42°26' W 070°48'0 0.0
2018-Jun-13 02:59N 42°26' W 070°48'0 0.0
2018-Jun-13 02:29N 42°26' W 070°48'0 0.0
2018-Jun-13 01:59N 42°26' W 070°48'0 0.0
2018-Jun-13 01:29N 42°26' W 070°48'0 0.0
2018-Jun-13 00:59N 42°26' W 070°48'0 0.0
2018-Jun-13 00:29N 42°26' W 070°48'0 0.0
2018-Jun-12 23:59N 42°26' W 070°48'0 0.0
2018-Jun-12 23:29N 42°26' W 070°48'0 0.0
2018-Jun-12 22:59N 42°26' W 070°48'0 0.0
2018-Jun-12 22:29N 42°26' W 070°48'0 0.0
2018-Jun-12 21:59N 42°26' W 070°48'0 0.2
2018-Jun-12 21:31N 42°26' W 070°48'4 7.8
2018-Jun-12 21:00N 42°28' W 070°44'5 9.8
2018-Jun-12 20:31N 42°31' W 070°38'510.0
2018-Jun-12 20:01N 42°33' W 070°32'510.4
2018-Jun-12 19:31N 42°36' W 070°26'510.3
2018-Jun-12 19:01N 42°39' W 070°20'510.3
2018-Jun-12 18:30N 42°42' W 070°14'510.1
2018-Jun-12 18:01N 42°45' W 070°09'510.8
2018-Jun-12 17:31N 42°50' W 070°06'510.7
2018-Jun-12 17:00N 42°55' W 070°04'510.6
2018-Jun-12 16:30N 42°60' W 070°01'1910.6
2018-Jun-12 14:45N 43°18' W 070°01'311.3
2018-Jun-12 14:30N 43°21' W 070°03'611.2
2018-Jun-12 14:00N 43°26' W 070°05'510.9
2018-Jun-12 13:30N 43°32' W 070°07'510.2
2018-Jun-12 13:01N 43°36' W 070°11'4 8.8
2018-Jun-12 12:30N 43°39' W 070°15'1 2.4
2018-Jun-12 11:58N 43°38' W 070°16'0 0.0
2018-Jun-12 11:28N 43°38' W 070°16'0 0.0
2018-Jun-12 10:58N 43°38' W 070°16'0 0.0
2018-Jun-12 10:28N 43°38' W 070°16'0 0.0
2018-Jun-12 09:58N 43°38' W 070°16'0 0.0
2018-Jun-12 09:28N 43°38' W 070°16'0 0.0
2018-Jun-12 08:58N 43°38' W 070°16'0 0.0
2018-Jun-12 08:28N 43°38' W 070°16'0 0.0
2018-Jun-12 07:58N 43°38' W 070°16'0 0.0
2018-Jun-12 07:28N 43°38' W 070°16'0 0.0
2018-Jun-12 06:58N 43°38' W 070°16'0 0.0
2018-Jun-12 06:28N 43°38' W 070°16'0 0.0
2018-Jun-12 05:58N 43°38' W 070°16'0 0.0
2018-Jun-12 05:28N 43°38' W 070°16'0 0.0
2018-Jun-12 04:58N 43°38' W 070°16'0 0.0
2018-Jun-12 04:28N 43°38' W 070°16'0 0.0
2018-Jun-12 03:58N 43°38' W 070°16'0 0.0
2018-Jun-12 03:28N 43°38' W 070°16'0 0.0
2018-Jun-12 02:58N 43°38' W 070°16'0 0.0
2018-Jun-12 02:25N 43°38' W 070°16'0 0.0
2018-Jun-12 01:58N 43°38' W 070°16'0 0.0
2018-Jun-12 01:28N 43°38' W 070°16'0 0.0
2018-Jun-12 00:58N 43°38' W 070°16'0 0.0
2018-Jun-12 00:28N 43°38' W 070°16'0 0.0
2018-Jun-11 23:58N 43°38' W 070°16'0 0.0
2018-Jun-11 23:28N 43°38' W 070°16'0 0.0
2018-Jun-11 22:58N 43°38' W 070°16'0 0.0
2018-Jun-11 22:28N 43°38' W 070°16'0 0.0
2018-Jun-11 21:58N 43°38' W 070°16'  

Dump ship's entire track history